createdAt,value
2017-08-02T00:00:07.751Z,0
2017-08-02T00:01:07.749Z,0
2017-08-02T00:02:07.812Z,0
2017-08-02T00:03:07.752Z,0
2017-08-02T00:04:07.813Z,0
2017-08-02T00:05:07.751Z,0
2017-08-02T00:06:07.811Z,0
2017-08-02T00:07:07.818Z,0
2017-08-02T00:08:07.751Z,0
2017-08-02T00:09:07.833Z,0
2017-08-02T00:10:07.793Z,0
2017-08-02T00:11:07.865Z,0
2017-08-02T00:12:07.815Z,0
2017-08-02T00:13:07.830Z,0
2017-08-02T00:14:07.795Z,0
2017-08-02T00:15:07.801Z,0
2017-08-02T00:16:07.773Z,0
2017-08-02T00:17:07.802Z,0
2017-08-02T00:18:07.801Z,0
2017-08-02T00:19:07.876Z,0
2017-08-02T00:20:07.799Z,0
2017-08-02T00:21:07.774Z,0
2017-08-02T00:22:07.843Z,0
2017-08-02T00:23:07.868Z,0
2017-08-02T00:24:07.802Z,0
2017-08-02T00:25:07.827Z,0
2017-08-02T00:26:07.864Z,0
2017-08-02T00:27:07.785Z,0
2017-08-02T00:28:07.879Z,0
2017-08-02T00:29:07.825Z,0
2017-08-02T00:30:07.841Z,0
2017-08-02T00:31:07.842Z,0
2017-08-02T00:32:07.883Z,0
2017-08-02T00:33:07.778Z,0
2017-08-02T00:34:07.874Z,0
2017-08-02T00:35:07.871Z,0
2017-08-02T00:36:07.831Z,0
2017-08-02T00:37:07.831Z,0
2017-08-02T00:38:07.848Z,0
2017-08-02T00:39:07.770Z,0
2017-08-02T00:40:07.790Z,0
2017-08-02T00:41:07.780Z,0
2017-08-02T00:42:07.796Z,0
2017-08-02T00:43:07.789Z,0
2017-08-02T00:44:07.777Z,0
2017-08-02T00:45:07.790Z,0
2017-08-02T00:46:07.777Z,0
2017-08-02T00:47:07.781Z,0
2017-08-02T00:48:07.726Z,0
2017-08-02T00:49:07.810Z,0
2017-08-02T00:50:07.809Z,0
2017-08-02T00:51:07.782Z,0
2017-08-02T00:52:07.845Z,0
2017-08-02T00:53:07.785Z,0
2017-08-02T00:54:07.810Z,0
2017-08-02T00:55:07.785Z,0
2017-08-02T00:56:07.782Z,0
2017-08-02T00:57:07.788Z,0
2017-08-02T00:58:07.813Z,0
2017-08-02T00:59:07.783Z,0
2017-08-02T01:00:07.781Z,0
2017-08-02T01:01:07.841Z,0
2017-08-02T01:02:07.848Z,0
2017-08-02T01:03:07.848Z,0
2017-08-02T01:04:07.845Z,0
2017-08-02T01:05:07.786Z,0
2017-08-02T01:06:07.853Z,0
2017-08-02T01:07:07.846Z,0
2017-08-02T01:08:07.812Z,0
2017-08-02T01:09:07.829Z,0
2017-08-02T01:10:07.895Z,0
2017-08-02T01:11:07.800Z,0
2017-08-02T01:12:07.832Z,0
2017-08-02T01:13:07.795Z,0
2017-08-02T01:14:07.899Z,0
2017-08-02T01:15:07.868Z,0
2017-08-02T01:16:07.853Z,0
2017-08-02T01:17:07.832Z,0
2017-08-02T01:18:07.885Z,0
2017-08-02T01:19:07.873Z,0
2017-08-02T01:20:07.890Z,0
2017-08-02T01:21:07.807Z,0
2017-08-02T01:22:07.877Z,0
2017-08-02T01:23:07.828Z,0
2017-08-02T01:24:07.898Z,0
2017-08-02T01:25:07.837Z,0
2017-08-02T01:26:07.891Z,0
2017-08-02T01:27:07.843Z,0
2017-08-02T01:28:07.869Z,0
2017-08-02T01:29:07.842Z,0
2017-08-02T01:30:07.831Z,0
2017-08-02T01:31:07.811Z,0
2017-08-02T01:32:07.843Z,0
2017-08-02T01:33:07.814Z,0
2017-08-02T01:34:07.817Z,0
2017-08-02T01:35:07.874Z,0
2017-08-02T01:36:07.881Z,0
2017-08-02T01:37:07.880Z,0
2017-08-02T01:38:07.847Z,0
2017-08-02T01:39:07.828Z,0
2017-08-02T01:40:07.873Z,0
2017-08-02T01:41:07.807Z,0
2017-08-02T01:42:07.925Z,0
2017-08-02T01:43:07.872Z,0
2017-08-02T01:44:07.805Z,0
2017-08-02T01:45:07.838Z,0
2017-08-02T01:46:07.845Z,0
2017-08-02T01:47:07.818Z,0
2017-08-02T01:48:07.838Z,0
2017-08-02T01:49:07.812Z,0
2017-08-02T01:50:07.816Z,0
2017-08-02T01:51:07.818Z,0
2017-08-02T01:52:07.876Z,0
2017-08-02T01:53:07.816Z,0
2017-08-02T01:54:07.875Z,0
2017-08-02T01:55:07.881Z,0
2017-08-02T01:56:08.002Z,0
2017-08-02T01:57:07.877Z,0
2017-08-02T01:58:07.816Z,0
2017-08-02T01:59:07.736Z,0
2017-08-02T02:00:07.794Z,0
2017-08-02T02:01:07.753Z,0
2017-08-02T02:02:07.822Z,0
2017-08-02T02:03:07.816Z,0
2017-08-02T02:04:07.748Z,0
2017-08-02T02:05:07.737Z,0
2017-08-02T02:06:07.751Z,0
2017-08-02T02:07:07.803Z,0
2017-08-02T02:08:07.830Z,0
2017-08-02T02:09:07.851Z,0
2017-08-02T02:10:07.853Z,0
2017-08-02T02:11:07.888Z,0
2017-08-02T02:12:07.824Z,0
2017-08-02T02:13:07.889Z,0
2017-08-02T02:14:07.887Z,0
2017-08-02T02:15:07.887Z,0
2017-08-02T02:16:07.852Z,0
2017-08-02T02:17:07.890Z,0
2017-08-02T02:18:07.827Z,0
2017-08-02T02:19:07.934Z,0
2017-08-02T02:20:07.873Z,0
2017-08-02T02:21:07.898Z,0
2017-08-02T02:22:07.940Z,0
2017-08-02T02:23:07.928Z,0
2017-08-02T02:24:07.866Z,0
2017-08-02T02:25:07.938Z,0
2017-08-02T02:26:07.926Z,0
2017-08-02T02:27:07.933Z,0
2017-08-02T02:28:07.877Z,0
2017-08-02T02:29:07.984Z,0
2017-08-02T02:30:07.909Z,0
2017-08-02T02:31:07.816Z,0
2017-08-02T02:32:07.814Z,0
2017-08-02T02:33:07.907Z,0
2017-08-02T02:34:07.909Z,0
2017-08-02T02:35:07.838Z,0
2017-08-02T02:36:07.874Z,0
2017-08-02T02:37:07.873Z,0
2017-08-02T02:38:07.846Z,0
2017-08-02T02:39:07.870Z,0
2017-08-02T02:40:07.940Z,0
2017-08-02T02:41:07.948Z,0
2017-08-02T02:42:07.847Z,0
2017-08-02T02:43:07.911Z,0
2017-08-02T02:44:07.904Z,0
2017-08-02T02:45:07.896Z,0
2017-08-02T02:46:07.855Z,0
2017-08-02T02:47:07.875Z,0
2017-08-02T02:48:07.883Z,0
2017-08-02T02:49:07.787Z,0
2017-08-02T02:50:07.863Z,0
2017-08-02T02:51:07.863Z,0
2017-08-02T02:52:07.798Z,0
2017-08-02T02:53:07.790Z,0
2017-08-02T02:54:07.852Z,0
2017-08-02T02:55:07.873Z,0
2017-08-02T02:56:07.870Z,0
2017-08-02T02:57:07.841Z,0
2017-08-02T02:58:07.798Z,0
2017-08-02T02:59:07.890Z,0
2017-08-02T03:00:07.952Z,0
2017-08-02T03:01:07.929Z,0
2017-08-02T03:02:07.890Z,0
2017-08-02T03:03:07.955Z,0
2017-08-02T03:04:07.960Z,0
2017-08-02T03:05:07.961Z,0
2017-08-02T03:06:07.888Z,0
2017-08-02T03:07:07.866Z,0
2017-08-02T03:08:07.932Z,0
2017-08-02T03:09:07.886Z,0
2017-08-02T03:10:07.955Z,0
2017-08-02T03:11:07.904Z,0
2017-08-02T03:12:07.930Z,4
2017-08-02T03:13:07.871Z,4
2017-08-02T03:14:07.921Z,4
2017-08-02T03:15:07.894Z,4
2017-08-02T03:16:07.877Z,8
2017-08-02T03:17:07.964Z,4
2017-08-02T03:18:07.873Z,8
2017-08-02T03:19:07.922Z,8
2017-08-02T03:20:07.945Z,12
2017-08-02T03:21:07.969Z,12
2017-08-02T03:22:07.900Z,16
2017-08-02T03:23:07.963Z,16
2017-08-02T03:24:07.901Z,20
2017-08-02T03:25:07.952Z,24
2017-08-02T03:26:07.874Z,28
2017-08-02T03:27:07.883Z,36
2017-08-02T03:28:07.975Z,44
2017-08-02T03:29:07.882Z,56
2017-08-02T03:30:07.941Z,64
2017-08-02T03:31:07.904Z,80
2017-08-02T03:32:07.892Z,92
2017-08-02T03:33:07.887Z,112
2017-08-02T03:34:07.901Z,132
2017-08-02T03:35:07.895Z,160
2017-08-02T03:36:07.949Z,192
2017-08-02T03:37:08.023Z,224
2017-08-02T03:38:07.885Z,248
2017-08-02T03:39:07.916Z,272
2017-08-02T03:40:07.918Z,288
2017-08-02T03:41:07.908Z,304
2017-08-02T03:42:07.897Z,316
2017-08-02T03:43:07.891Z,320
2017-08-02T03:44:07.890Z,320
2017-08-02T03:45:07.983Z,320
2017-08-02T03:46:07.938Z,324
2017-08-02T03:47:07.959Z,328
2017-08-02T03:48:07.940Z,340
2017-08-02T03:49:07.920Z,356
2017-08-02T03:50:07.953Z,368
2017-08-02T03:51:07.946Z,380
2017-08-02T03:52:07.965Z,396
2017-08-02T03:53:07.892Z,412
2017-08-02T03:54:07.949Z,440
2017-08-02T03:55:07.987Z,480
2017-08-02T03:56:07.953Z,536
2017-08-02T03:57:07.922Z,604
2017-08-02T03:58:07.890Z,684
2017-08-02T03:59:07.905Z,756
2017-08-02T04:00:07.897Z,816
2017-08-02T04:01:07.960Z,856
2017-08-02T04:02:07.928Z,884
2017-08-02T04:03:07.925Z,928
2017-08-02T04:04:07.876Z,984
2017-08-02T04:05:07.904Z,1048
2017-08-02T04:06:07.901Z,1116
2017-08-02T04:07:07.922Z,1192
2017-08-02T04:08:07.925Z,1272
2017-08-02T04:09:07.954Z,1368
2017-08-02T04:10:07.932Z,1472
2017-08-02T04:11:07.910Z,1580
2017-08-02T04:12:08.006Z,1672
2017-08-02T04:13:07.970Z,1740
2017-08-02T04:14:07.972Z,1764
2017-08-02T04:15:07.911Z,1760
2017-08-02T04:16:07.934Z,1752
2017-08-02T04:17:07.981Z,1772
2017-08-02T04:18:08.006Z,1828
2017-08-02T04:19:07.901Z,1908
2017-08-02T04:20:07.899Z,2000
2017-08-02T04:21:07.933Z,2088
2017-08-02T04:22:07.963Z,2144
2017-08-02T04:23:07.931Z,2184
2017-08-02T04:24:07.931Z,2196
2017-08-02T04:25:07.929Z,2196
2017-08-02T04:26:07.941Z,2188
2017-08-02T04:27:07.966Z,2200
2017-08-02T04:28:07.899Z,2216
2017-08-02T04:29:07.985Z,2220
2017-08-02T04:30:08.002Z,2204
2017-08-02T04:31:07.947Z,2200
2017-08-02T04:32:07.984Z,2228
2017-08-02T04:33:08.016Z,2288
2017-08-02T04:34:07.922Z,2400
2017-08-02T04:35:07.935Z,2568
2017-08-02T04:36:08.009Z,2800
2017-08-02T04:37:07.949Z,3064
2017-08-02T04:38:07.934Z,3288
2017-08-02T04:39:07.954Z,3480
2017-08-02T04:40:07.947Z,3632
2017-08-02T04:41:07.950Z,3740
2017-08-02T04:42:07.988Z,3824
2017-08-02T04:43:07.957Z,3892
2017-08-02T04:44:07.981Z,3948
2017-08-02T04:45:07.926Z,4020
2017-08-02T04:46:07.924Z,4144
2017-08-02T04:47:08.012Z,4344
2017-08-02T04:48:07.974Z,4648
2017-08-02T04:49:07.956Z,4956
2017-08-02T04:50:07.980Z,5284
2017-08-02T04:51:07.984Z,5632
2017-08-02T04:52:08.015Z,6012
2017-08-02T04:53:07.991Z,6484
2017-08-02T04:54:08.017Z,7108
2017-08-02T04:55:07.960Z,7772
2017-08-02T04:56:08.003Z,8420
2017-08-02T04:57:07.961Z,9036
2017-08-02T04:58:08.024Z,9524
2017-08-02T04:59:08.023Z,9836
2017-08-02T05:00:07.894Z,9936
2017-08-02T05:01:07.935Z,9824
2017-08-02T05:02:07.920Z,9588
2017-08-02T05:03:07.924Z,9392
2017-08-02T05:04:07.855Z,9360
2017-08-02T05:05:07.934Z,9472
2017-08-02T05:06:07.899Z,9680
2017-08-02T05:07:07.857Z,9872
2017-08-02T05:08:08.039Z,9976
2017-08-02T05:09:07.938Z,9972
2017-08-02T05:10:07.994Z,9988
2017-08-02T05:11:08.058Z,10076
2017-08-02T05:12:07.937Z,10200
2017-08-02T05:13:08.119Z,10276
2017-08-02T05:14:07.937Z,10280
2017-08-02T05:15:07.936Z,10200
2017-08-02T05:16:08.024Z,10036
2017-08-02T05:17:07.971Z,9808
2017-08-02T05:18:07.936Z,9600
2017-08-02T05:19:07.992Z,9476
2017-08-02T05:20:08.076Z,9492
2017-08-02T05:21:07.906Z,9608
2017-08-02T05:22:07.943Z,9856
2017-08-02T05:23:07.959Z,10272
2017-08-02T05:24:07.937Z,10792
2017-08-02T05:25:07.967Z,11308
2017-08-02T05:26:07.937Z,11928
2017-08-02T05:27:07.952Z,12648
2017-08-02T05:28:07.911Z,13364
2017-08-02T05:29:07.964Z,13916
2017-08-02T05:30:07.936Z,14156
2017-08-02T05:31:07.999Z,14180
2017-08-02T05:32:07.939Z,14004
2017-08-02T05:33:07.934Z,13732
2017-08-02T05:34:07.963Z,13500
2017-08-02T05:35:08.026Z,13300
2017-08-02T05:36:07.941Z,13264
2017-08-02T05:37:07.968Z,13348
2017-08-02T05:38:07.939Z,13400
2017-08-02T05:39:07.971Z,13556
2017-08-02T05:40:07.949Z,13948
2017-08-02T05:41:08.004Z,14436
2017-08-02T05:42:08.021Z,14800
2017-08-02T05:43:07.949Z,15156
2017-08-02T05:44:07.953Z,15612
2017-08-02T05:45:08.026Z,16316
2017-08-02T05:46:08.016Z,17324
2017-08-02T05:47:07.993Z,18628
2017-08-02T05:48:08.049Z,20004
2017-08-02T05:49:07.954Z,21792
2017-08-02T05:50:08.014Z,23168
2017-08-02T05:51:08.012Z,25344
2017-08-02T05:52:07.952Z,25824
2017-08-02T05:53:07.960Z,26368
2017-08-02T05:54:08.018Z,28672
2017-08-02T05:55:07.950Z,26720
2017-08-02T05:56:08.019Z,25120
2017-08-02T05:57:07.984Z,23520
2017-08-02T05:58:07.990Z,22656
2017-08-02T05:59:08.016Z,22432
2017-08-02T06:00:07.953Z,22208
2017-08-02T06:01:07.963Z,22240
2017-08-02T06:02:07.961Z,23040
2017-08-02T06:03:07.957Z,23456
2017-08-02T06:04:07.989Z,22080
2017-08-02T06:05:07.957Z,21344
2017-08-02T06:06:07.960Z,21408
2017-08-02T06:07:08.022Z,22048
2017-08-02T06:08:08.022Z,23008
2017-08-02T06:09:07.963Z,23776
2017-08-02T06:10:08.002Z,22848
2017-08-02T06:11:07.966Z,23840
2017-08-02T06:12:08.066Z,28928
2017-08-02T06:13:07.976Z,34752
2017-08-02T06:14:08.070Z,35200
2017-08-02T06:15:07.971Z,24576
2017-08-02T06:16:08.069Z,21632
2017-08-02T06:17:08.004Z,21600
2017-08-02T06:18:08.003Z,22656
2017-08-02T06:19:08.027Z,26816
2017-08-02T06:20:07.994Z,26368
2017-08-02T06:21:07.980Z,29504
2017-08-02T06:22:08.001Z,33856
2017-08-02T06:23:08.121Z,40256
2017-08-02T06:24:07.998Z,42528
2017-08-02T06:25:07.986Z,44544
2017-08-02T06:26:07.958Z,44864
2017-08-02T06:27:08.048Z,44032
2017-08-02T06:28:07.995Z,43392
2017-08-02T06:29:07.998Z,42176
2017-08-02T06:30:07.970Z,43360
2017-08-02T06:31:08.002Z,42304
2017-08-02T06:32:07.971Z,40352
2017-08-02T06:33:07.980Z,39456
2017-08-02T06:34:08.031Z,39648
2017-08-02T06:35:08.037Z,39488
2017-08-02T06:36:07.975Z,42912
2017-08-02T06:37:08.048Z,46912
2017-08-02T06:38:07.975Z,50048
2017-08-02T06:39:08.003Z,41280
2017-08-02T06:40:08.012Z,40160
2017-08-02T06:41:08.075Z,43072
2017-08-02T06:42:07.986Z,48384
2017-08-02T06:43:08.024Z,53728
2017-08-02T06:44:08.025Z,43648
2017-08-02T06:45:07.986Z,51104
2017-08-02T06:46:08.080Z,55488
2017-08-02T06:47:08.025Z,60064
2017-08-02T06:48:08.026Z,63328
2017-08-02T06:49:08.041Z,60640
2017-08-02T06:50:08.009Z,59488
2017-08-02T06:51:08.011Z,48640
2017-08-02T06:52:08.015Z,59328
2017-08-02T06:53:08.067Z,36096
2017-08-02T06:54:08.062Z,34560
2017-08-02T06:55:08.050Z,38816
2017-08-02T06:56:08.019Z,34080
2017-08-02T06:57:08.018Z,44320
2017-08-02T06:58:07.990Z,39520
2017-08-02T06:59:08.019Z,37376
2017-08-02T07:00:07.998Z,58496
2017-08-02T07:01:07.984Z,53984
2017-08-02T07:02:07.987Z,58656
2017-08-02T07:03:07.967Z,57568
2017-08-02T07:04:07.985Z,58400
2017-08-02T07:05:07.898Z,61376
2017-08-02T07:06:07.906Z,65088
2017-08-02T07:07:07.988Z,68576
2017-08-02T07:08:07.989Z,73248
2017-08-02T07:09:07.904Z,75072
2017-08-02T07:10:08.058Z,64480
2017-08-02T07:11:08.024Z,65184
2017-08-02T07:12:08.031Z,69280
2017-08-02T07:13:08.055Z,64896
2017-08-02T07:14:08.025Z,57024
2017-08-02T07:15:08.025Z,56608
2017-08-02T07:16:07.999Z,69248
2017-08-02T07:17:08.063Z,74144
2017-08-02T07:18:08.028Z,69376
2017-08-02T07:19:08.061Z,63520
2017-08-02T07:20:08.062Z,63968
2017-08-02T07:21:08.034Z,62880
2017-08-02T07:22:08.006Z,58432
2017-08-02T07:23:08.060Z,62240
2017-08-02T07:24:08.063Z,66880
2017-08-02T07:25:08.034Z,68608
2017-08-02T07:26:08.038Z,69600
2017-08-02T07:27:08.067Z,66624
2017-08-02T07:28:08.071Z,67744
2017-08-02T07:29:08.005Z,67840
2017-08-02T07:30:08.052Z,72704
2017-08-02T07:31:08.076Z,65536
2017-08-02T07:32:08.025Z,65504
2017-08-02T07:33:08.078Z,52896
2017-08-02T07:34:08.015Z,46880
2017-08-02T07:35:08.052Z,50592
2017-08-02T07:36:08.023Z,49856
2017-08-02T07:37:08.074Z,55392
2017-08-02T07:38:08.018Z,64896
2017-08-02T07:39:08.075Z,46496
2017-08-02T07:41:08.048Z,61408
2017-08-02T07:42:08.026Z,72160
2017-08-02T07:43:08.035Z,76832
2017-08-02T07:44:07.991Z,84128
2017-08-02T07:45:08.088Z,72768
2017-08-02T07:46:08.041Z,63904
2017-08-02T07:47:08.053Z,77088
2017-08-02T07:48:08.022Z,84704
2017-08-02T07:49:08.049Z,80992
2017-08-02T07:50:08.021Z,85216
2017-08-02T07:51:08.087Z,81824
2017-08-02T07:52:08.016Z,75904
2017-08-02T07:53:08.048Z,67520
2017-08-02T07:54:08.020Z,84736
2017-08-02T07:55:08.023Z,67360
2017-08-02T07:56:08.020Z,64928
2017-08-02T07:57:08.085Z,53504
2017-08-02T07:58:08.055Z,65248
2017-08-02T07:59:08.051Z,49184
2017-08-02T08:00:08.021Z,47680
2017-08-02T08:01:08.026Z,44224
2017-08-02T08:02:08.056Z,75744
2017-08-02T08:03:08.054Z,76672
2017-08-02T08:04:08.095Z,87552
2017-08-02T08:05:08.085Z,78976
2017-08-02T08:06:08.055Z,62144
2017-08-02T08:07:08.091Z,69696
2017-08-02T08:08:08.029Z,66784
2017-08-02T08:09:08.030Z,51520
2017-08-02T08:10:08.069Z,86304
2017-08-02T08:11:08.074Z,100000
2017-08-02T08:12:08.062Z,108096
2017-08-02T08:13:08.090Z,67296
2017-08-02T08:14:08.070Z,91168
2017-08-02T08:15:08.038Z,100448
2017-08-02T08:16:08.039Z,78528
2017-08-02T08:17:08.138Z,47392
2017-08-02T08:18:08.040Z,53248
2017-08-02T08:19:08.075Z,83424
2017-08-02T08:20:08.101Z,112192
2017-08-02T08:21:08.038Z,61792
2017-08-02T08:22:08.069Z,61888
2017-08-02T08:23:08.068Z,55488
2017-08-02T08:24:08.054Z,67680
2017-08-02T08:25:08.058Z,95296
2017-08-02T08:26:08.014Z,56256
2017-08-02T08:27:08.065Z,59840
2017-08-02T08:28:08.070Z,65440
2017-08-02T08:29:08.109Z,66912
2017-08-02T08:30:08.044Z,112096
2017-08-02T08:31:08.001Z,95904
2017-08-02T08:32:08.055Z,90912
2017-08-02T08:33:08.119Z,50976
2017-08-02T08:34:08.067Z,74272
2017-08-02T08:35:08.123Z,50944
2017-08-02T08:36:08.073Z,49472
2017-08-02T08:37:08.073Z,55424
2017-08-02T08:38:08.077Z,111680
2017-08-02T08:39:08.084Z,128512
2017-08-02T08:40:08.064Z,136960
2017-08-02T08:41:08.034Z,126528
2017-08-02T08:42:08.050Z,74944
2017-08-02T08:43:08.068Z,89856
2017-08-02T08:44:08.070Z,102016
2017-08-02T08:45:08.051Z,107328
2017-08-02T08:46:08.055Z,114848
2017-08-02T08:47:07.999Z,91296
2017-08-02T08:48:08.067Z,107904
2017-08-02T08:49:08.001Z,126016
2017-08-02T08:50:08.083Z,131040
2017-08-02T08:51:08.120Z,125952
2017-08-02T08:52:08.113Z,128768
2017-08-02T08:53:08.054Z,121984
2017-08-02T08:54:08.118Z,105664
2017-08-02T08:55:08.053Z,118880
2017-08-02T08:56:08.059Z,100768
2017-08-02T08:57:08.085Z,114080
2017-08-02T08:58:08.120Z,83264
2017-08-02T08:59:08.056Z,114208
2017-08-02T09:00:08.141Z,103520
2017-08-02T09:01:08.103Z,130944
2017-08-02T09:02:08.124Z,129696
2017-08-02T09:03:08.102Z,128032
2017-08-02T09:04:08.137Z,103392
2017-08-02T09:05:08.065Z,128800
2017-08-02T09:06:08.109Z,94784
2017-08-02T09:07:08.094Z,83680
2017-08-02T09:08:08.170Z,78816
2017-08-02T09:09:08.098Z,74528
2017-08-02T09:10:08.138Z,69632
2017-08-02T09:11:08.147Z,66688
2017-08-02T09:12:08.146Z,65472
2017-08-02T09:13:08.107Z,65024
2017-08-02T09:14:08.108Z,64512
2017-08-02T09:15:08.079Z,64192
2017-08-02T09:16:08.100Z,63424
2017-08-02T09:17:08.101Z,61792
2017-08-02T09:18:08.136Z,60544
2017-08-02T09:19:08.095Z,59840
2017-08-02T09:20:08.102Z,59904
2017-08-02T09:21:08.080Z,60256
2017-08-02T09:22:08.141Z,60416
2017-08-02T09:23:08.078Z,60480
2017-08-02T09:24:08.151Z,60544
2017-08-02T09:25:08.106Z,59648
2017-08-02T09:26:08.150Z,58112
2017-08-02T09:27:08.117Z,57280
2017-08-02T09:28:08.108Z,56480
2017-08-02T09:29:08.085Z,55936
2017-08-02T09:30:08.129Z,55840
2017-08-02T09:31:08.085Z,55904
2017-08-02T09:32:08.144Z,55968
2017-08-02T09:33:08.159Z,55840
2017-08-02T09:34:08.085Z,56128
2017-08-02T09:35:08.171Z,56192
2017-08-02T09:36:08.085Z,55296
2017-08-02T09:37:08.152Z,54720
2017-08-02T09:38:08.107Z,55008
2017-08-02T09:39:08.086Z,56128
2017-08-02T09:40:08.127Z,57344
2017-08-02T09:41:08.121Z,58496
2017-08-02T09:42:08.183Z,59360
2017-08-02T09:43:08.123Z,60480
2017-08-02T09:44:08.097Z,61664
2017-08-02T09:45:08.156Z,61664
2017-08-02T09:46:08.190Z,60192
2017-08-02T09:47:08.101Z,58272
2017-08-02T09:48:08.164Z,56448
2017-08-02T09:49:08.096Z,54560
2017-08-02T09:50:08.150Z,53312
2017-08-02T09:51:08.159Z,53120
2017-08-02T09:52:08.188Z,53280
2017-08-02T09:53:08.125Z,53920
2017-08-02T09:54:08.116Z,54528
2017-08-02T09:55:08.186Z,54848
2017-08-02T09:56:08.130Z,55392
2017-08-02T09:57:08.118Z,56288
2017-08-02T09:58:08.161Z,58080
2017-08-02T09:59:08.171Z,60608
2017-08-02T10:00:08.106Z,62944
2017-08-02T10:01:08.071Z,63904
2017-08-02T10:02:08.096Z,64032
2017-08-02T10:03:08.111Z,63968
2017-08-02T10:04:08.100Z,64096
2017-08-02T10:05:08.101Z,64928
2017-08-02T10:06:08.106Z,68480
2017-08-02T10:07:08.099Z,64672
2017-08-02T10:08:08.108Z,63936
2017-08-02T10:09:08.128Z,64000
2017-08-02T10:10:08.079Z,65824
2017-08-02T10:11:08.126Z,69088
2017-08-02T10:12:08.082Z,73056
2017-08-02T10:13:08.105Z,78016
2017-08-02T10:14:08.084Z,78496
2017-08-02T10:15:08.152Z,74560
2017-08-02T10:16:08.128Z,72640
2017-08-02T10:17:08.132Z,71520
2017-08-02T10:18:08.107Z,69120
2017-08-02T10:19:08.085Z,68128
2017-08-02T10:20:08.141Z,67424
2017-08-02T10:21:08.173Z,62912
2017-08-02T10:22:08.185Z,62400
2017-08-02T10:23:08.205Z,67232
2017-08-02T10:24:08.145Z,72096
2017-08-02T10:25:08.203Z,67648
2017-08-02T10:26:08.194Z,65888
2017-08-02T10:27:08.114Z,67264
2017-08-02T10:28:08.150Z,70752
2017-08-02T10:29:08.120Z,88160
2017-08-02T10:30:08.120Z,108384
2017-08-02T10:31:08.115Z,68864
2017-08-02T10:32:08.158Z,186432
2017-08-02T10:33:08.154Z,156256
2017-08-02T10:34:08.126Z,182816
2017-08-02T10:35:08.208Z,147072
2017-08-02T10:36:08.123Z,180384
2017-08-02T10:37:08.178Z,189856
2017-08-02T10:38:08.148Z,182176
2017-08-02T10:39:08.199Z,154880
2017-08-02T10:40:08.214Z,155872
2017-08-02T10:41:08.126Z,94272
2017-08-02T10:42:08.118Z,76032
2017-08-02T10:43:08.272Z,127872
2017-08-02T10:44:08.098Z,153504
2017-08-02T10:45:08.137Z,150048
2017-08-02T10:46:08.193Z,167552
2017-08-02T10:47:08.102Z,185984
2017-08-02T10:48:08.273Z,175232
2017-08-02T10:49:08.145Z,147840
2017-08-02T10:50:08.157Z,184064
2017-08-02T10:51:08.185Z,173408
2017-08-02T10:52:08.134Z,58720
2017-08-02T10:53:08.135Z,62912
2017-08-02T10:54:08.224Z,185568
2017-08-02T10:55:08.164Z,180224
2017-08-02T10:56:08.207Z,147616
2017-08-02T10:57:08.190Z,152672
2017-08-02T10:58:08.136Z,79776
2017-08-02T10:59:08.198Z,165312
2017-08-02T11:00:08.199Z,176800
2017-08-02T11:01:08.187Z,150464
2017-08-02T11:02:08.162Z,174208
2017-08-02T11:03:08.155Z,174016
2017-08-02T11:04:08.210Z,170080
2017-08-02T11:05:08.197Z,152608
2017-08-02T11:06:08.128Z,166144
2017-08-02T11:07:08.117Z,157024
2017-08-02T11:08:08.166Z,162464
2017-08-02T11:09:08.158Z,119488
2017-08-02T11:10:08.161Z,113280
2017-08-02T11:11:08.174Z,150144
2017-08-02T11:12:08.229Z,145632
2017-08-02T11:13:08.145Z,133088
2017-08-02T11:14:08.220Z,126848
2017-08-02T11:15:08.167Z,88192
2017-08-02T11:16:08.215Z,89760
2017-08-02T11:17:08.204Z,102880
2017-08-02T11:18:08.277Z,68544
2017-08-02T11:19:08.144Z,62432
2017-08-02T11:20:08.203Z,65696
2017-08-02T11:21:08.142Z,62592
2017-08-02T11:22:08.242Z,58624
2017-08-02T11:23:08.215Z,58784
2017-08-02T11:24:08.238Z,74912
2017-08-02T11:25:08.178Z,59744
2017-08-02T11:26:08.186Z,64832
2017-08-02T11:27:08.157Z,135616
2017-08-02T11:28:08.208Z,94016
2017-08-02T11:29:08.223Z,67904
2017-08-02T11:30:08.206Z,58336
2017-08-02T11:31:08.157Z,53792
2017-08-02T11:32:08.215Z,56000
2017-08-02T11:33:08.179Z,71456
2017-08-02T11:34:08.148Z,121504
2017-08-02T11:35:08.177Z,117056
2017-08-02T11:36:08.164Z,117824
2017-08-02T11:37:08.186Z,84704
2017-08-02T11:38:08.156Z,86720
2017-08-02T11:39:08.216Z,104384
2017-08-02T11:40:08.176Z,119488
2017-08-02T11:41:08.152Z,132832
2017-08-02T11:42:08.216Z,125440
2017-08-02T11:43:08.179Z,115872
2017-08-02T11:44:08.182Z,110272
2017-08-02T11:45:08.217Z,106944
2017-08-02T11:46:08.182Z,121408
2017-08-02T11:47:08.157Z,133440
2017-08-02T11:48:08.181Z,95648
2017-08-02T11:49:08.213Z,96480
2017-08-02T11:50:08.214Z,106080
2017-08-02T11:51:08.171Z,78080
2017-08-02T11:52:08.190Z,64800
2017-08-02T11:53:08.190Z,62848
2017-08-02T11:54:08.198Z,66080
2017-08-02T11:55:08.235Z,50080
2017-08-02T11:56:08.259Z,48736
2017-08-02T11:57:08.208Z,49696
2017-08-02T11:58:08.194Z,165216
2017-08-02T11:59:08.255Z,179136
2017-08-02T12:00:08.224Z,162720
2017-08-02T12:01:08.305Z,169408
2017-08-02T12:02:08.124Z,109280
2017-08-02T12:03:08.174Z,183488
2017-08-02T12:04:08.186Z,191744
2017-08-02T12:05:08.162Z,185696
2017-08-02T12:06:08.153Z,74880
2017-08-02T12:07:08.160Z,84768
2017-08-02T12:08:08.226Z,88064
2017-08-02T12:09:08.183Z,45312
2017-08-02T12:10:08.138Z,40864
2017-08-02T12:11:08.209Z,40608
2017-08-02T12:12:08.179Z,91040
2017-08-02T12:13:08.269Z,46304
2017-08-02T12:14:08.215Z,39712
2017-08-02T12:15:08.267Z,38880
2017-08-02T12:16:08.235Z,46688
2017-08-02T12:17:08.220Z,61792
2017-08-02T12:18:08.216Z,196160
2017-08-02T12:19:08.276Z,188896
2017-08-02T12:20:08.221Z,88832
2017-08-02T12:21:08.178Z,73280
2017-08-02T12:22:08.135Z,69696
2017-08-02T12:23:08.198Z,68352
2017-08-02T12:24:08.161Z,67040
2017-08-02T12:25:08.208Z,64928
2017-08-02T12:26:08.184Z,65664
2017-08-02T12:27:08.212Z,69856
2017-08-02T12:28:08.248Z,79104
2017-08-02T12:29:08.327Z,87232
2017-08-02T12:30:08.150Z,84416
2017-08-02T12:31:08.282Z,100032
2017-08-02T12:32:08.287Z,84032
2017-08-02T12:33:08.253Z,74816
2017-08-02T12:34:08.257Z,66720
2017-08-02T12:35:08.286Z,61024
2017-08-02T12:36:08.285Z,70880
2017-08-02T12:37:08.196Z,69088
2017-08-02T12:38:08.192Z,76416
2017-08-02T12:39:08.195Z,96288
2017-08-02T12:40:08.193Z,81440
2017-08-02T12:41:08.406Z,94432
2017-08-02T12:42:08.266Z,113600
2017-08-02T12:43:08.266Z,82784
2017-08-02T12:44:08.285Z,74176
2017-08-02T12:45:08.259Z,71008
2017-08-02T12:46:08.242Z,69152
2017-08-02T12:47:08.268Z,71520
2017-08-02T12:48:08.202Z,77088
2017-08-02T12:49:08.223Z,83456
2017-08-02T12:50:08.265Z,85440
2017-08-02T12:51:08.256Z,96544
2017-08-02T12:52:08.219Z,96256
2017-08-02T12:53:08.254Z,95456
2017-08-02T12:54:08.217Z,114464
2017-08-02T12:55:08.189Z,107712
2017-08-02T12:56:08.225Z,185312
2017-08-02T12:57:08.254Z,91200
2017-08-02T12:58:08.228Z,79360
2017-08-02T12:59:08.190Z,76864
2017-08-02T13:00:08.194Z,76096
2017-08-02T13:01:08.235Z,80608
2017-08-02T13:02:08.183Z,94432
2017-08-02T13:03:08.219Z,133408
2017-08-02T13:04:08.278Z,152128
2017-08-02T13:05:08.181Z,110720
2017-08-02T13:06:08.271Z,88800
2017-08-02T13:07:08.222Z,90880
2017-08-02T13:08:08.205Z,87232
2017-08-02T13:09:08.239Z,124736
2017-08-02T13:10:08.225Z,99936
2017-08-02T13:11:08.226Z,95552
2017-08-02T13:12:08.191Z,89920
2017-08-02T13:13:08.193Z,83808
2017-08-02T13:14:08.193Z,78944
2017-08-02T13:15:08.209Z,78176
2017-08-02T13:16:08.232Z,84512
2017-08-02T13:17:08.151Z,93888
2017-08-02T13:18:08.152Z,105056
2017-08-02T13:19:08.210Z,91776
2017-08-02T13:20:08.214Z,102144
2017-08-02T13:21:08.257Z,173408